Time;durP1;ratioP1;P1;durP2;ratioP2;P2;SDS_P1;SDS_P2;PMS_P1;PMS_P2;Temp;Humidity;BMP_temperature;BMP_pressure;BME280_temperature;BME280_humidity;BME280_pressure;Samples;Min_cycle;Max_cycle;Signal;HPM_P1;HPM_P2
2023/09/28 00:00:45;;;;;;;4.05;3.50;;;;;;;;;;466466;28;1128;-70
2023/09/28 00:01:02;;;;;;;4.90;3.63;;;;;;;;;;466938;28;1331;-70
2023/09/28 00:01:18;;;;;;;4.65;3.80;;;;;;;;;;469494;28;1088;-70
2023/09/28 00:01:38;;;;;;;3.95;3.55;;;;;;;;;;466745;28;1330;-70
2023/09/28 00:01:53;;;;;;;4.18;3.47;;;;;;;;;;465846;28;1492;-70
2023/09/28 00:02:10;;;;;;;4.53;3.77;;;;;;;;;;465399;28;1308;-70
2023/09/28 00:02:26;;;;;;;4.10;3.70;;;;;;;;;;467777;28;1079;-71
2023/09/28 00:02:41;;;;;;;3.63;3.33;;;;;;;;;;465371;28;1198;-70
2023/09/28 00:02:57;;;;;;;3.65;3.35;;;;;;;;;;466573;28;1342;-70
2023/09/28 00:03:12;;;;;;;3.97;3.50;;;;;;;;;;466708;28;1281;-71
2023/09/28 00:03:28;;;;;;;4.73;3.50;;;;;;;;;;466303;28;993;-70
2023/09/28 00:03:43;;;;;;;4.97;3.60;;;;;;;;;;465866;28;1222;-70
2023/09/28 00:03:59;;;;;;;4.13;3.53;;;;;;;;;;466666;28;1074;-70
2023/09/28 00:04:14;;;;;;;4.78;3.78;;;;;;;;;;466855;28;1519;-70
2023/09/28 00:04:29;;;;;;;5.40;3.77;;;;;;;;;;465835;28;1295;-70
2023/09/28 00:04:44;;;;;;;4.50;3.50;;;;;;;;;;463773;28;1115;-70
2023/09/28 00:05:00;;;;;;;4.38;3.53;;;;;;;;;;466722;28;883;-70
2023/09/28 00:05:16;;;;;;;4.67;3.60;;;;;;;;;;465173;28;952;-70
2023/09/28 00:05:32;;;;;;;5.07;3.65;;;;;;;;;;464680;28;1291;-70
2023/09/28 00:05:47;;;;;;;4.63;3.40;;;;;;;;;;464461;28;1350;-70
2023/09/28 00:06:02;;;;;;;5.03;3.40;;;;;;;;;;466360;28;1085;-70
2023/09/28 00:06:18;;;;;;;5.13;3.70;;;;;;;;;;464728;28;1278;-70
2023/09/28 00:06:34;;;;;;;4.10;3.63;;;;;;;;;;465413;28;1079;-70
2023/09/28 00:06:50;;;;;;;4.15;3.38;;;;;;;;;;467145;28;1010;-70
2023/09/28 00:07:05;;;;;;;4.85;3.63;;;;;;;;;;466381;28;1113;-70
2023/09/28 00:07:20;;;;;;;5.63;3.80;;;;;;;;;;466479;28;1360;-70
2023/09/28 00:07:36;;;;;;;5.68;3.55;;;;;;;;;;470556;28;1042;-70
2023/09/28 00:07:51;;;;;;;4.23;3.50;;;;;;;;;;466422;28;1235;-70
2023/09/28 00:08:07;;;;;;;3.83;3.43;;;;;;;;;;465264;28;1208;-69
2023/09/28 00:08:23;;;;;;;3.85;3.53;;;;;;;;;;467234;28;993;-70
2023/09/28 00:08:38;;;;;;;4.03;3.50;;;;;;;;;;466362;28;1246;-70
2023/09/28 00:08:53;;;;;;;4.20;3.30;;;;;;;;;;465007;28;1237;-70
2023/09/28 00:09:10;;;;;;;4.00;3.23;;;;;;;;;;466903;28;1253;-71
2023/09/28 00:09:25;;;;;;;3.78;3.40;;;;;;;;;;468879;28;1159;-70
2023/09/28 00:09:41;;;;;;;4.03;3.63;;;;;;;;;;469209;28;1287;-70
2023/09/28 00:09:56;;;;;;;4.35;3.80;;;;;;;;;;466217;28;1040;-70
2023/09/28 00:10:13;;;;;;;4.70;3.90;;;;;;;;;;467712;28;1123;-70
2023/09/28 00:10:30;;;;;;;4.70;3.70;;;;;;;;;;466861;28;1269;-70
2023/09/28 00:10:45;;;;;;;4.18;3.40;;;;;;;;;;467102;28;957;-70
2023/09/28 00:11:01;;;;;;;4.07;3.43;;;;;;;;;;466289;28;1049;-70
2023/09/28 00:11:16;;;;;;;4.30;3.50;;;;;;;;;;465531;28;1229;-70
2023/09/28 00:11:31;;;;;;;4.10;3.60;;;;;;;;;;465826;28;1215;-70
2023/09/28 00:11:46;;;;;;;4.23;3.40;;;;;;;;;;465919;28;1060;-70
2023/09/28 00:12:02;;;;;;;4.83;3.50;;;;;;;;;;465965;28;1199;-70
2023/09/28 00:12:17;;;;;;;4.43;3.58;;;;;;;;;;466916;28;1321;-70
2023/09/28 00:12:33;;;;;;;3.90;3.30;;;;;;;;;;466572;28;1376;-70
2023/09/28 00:12:49;;;;;;;4.88;3.20;;;;;;;;;;467212;28;1174;-70
2023/09/28 00:13:05;;;;;;;4.75;3.22;;;;;;;;;;467058;28;1078;-70
2023/09/28 00:13:20;;;;;;;4.40;3.50;;;;;;;;;;465806;28;1143;-70
2023/09/28 00:13:35;;;;;;;5.25;3.55;;;;;;;;;;466673;28;1183;-70
2023/09/28 00:13:51;;;;;;;5.00;3.40;;;;;;;;;;465860;28;1053;-70
2023/09/28 00:14:06;;;;;;;3.57;3.17;;;;;;;;;;467483;28;1073;-71
2023/09/28 00:14:21;;;;;;;3.50;3.00;;;;;;;;;;466054;28;1062;-70
2023/09/28 00:14:37;;;;;;;4.70;3.20;;;;;;;;;;465333;28;1021;-70
2023/09/28 00:14:53;;;;;;;5.40;3.30;;;;;;;;;;466791;28;902;-70
2023/09/28 00:15:10;;;;;;;5.18;3.47;;;;;;;;;;467271;28;901;-71
2023/09/28 00:15:25;;;;;;;5.07;3.70;;;;;;;;;;468139;28;1000;-71
2023/09/28 00:15:40;;;;;;;4.80;3.50;;;;;;;;;;469274;28;1024;-70
2023/09/28 00:15:56;;;;;;;3.63;3.10;;;;;;;;;;468884;28;1068;-70
2023/09/28 00:16:11;;;;;;;3.63;3.20;;;;;;;;;;468400;28;1314;-70
2023/09/28 00:16:27;;;;;;;5.03;3.50;;;;;;;;;;468929;28;900;-70
2023/09/28 00:16:42;;;;;;;5.07;3.60;;;;;;;;;;467097;28;1484;-70
2023/09/28 00:16:57;;;;;;;4.05;3.58;;;;;;;;;;466343;28;1223;-70
2023/09/28 00:17:13;;;;;;;5.13;3.63;;;;;;;;;;465946;28;1196;-70
2023/09/28 00:17:28;;;;;;;5.67;3.70;;;;;;;;;;464630;28;983;-70
2023/09/28 00:17:47;;;;;;;4.57;3.70;;;;;;;;;;464327;28;1364;-70
2023/09/28 00:18:03;;;;;;;5.18;3.55;;;;;;;;;;464301;28;2009;-70
2023/09/28 00:18:19;;;;;;;4.97;3.55;;;;;;;;;;465682;28;942;-70
2023/09/28 00:18:34;;;;;;;4.40;3.53;;;;;;;;;;463986;28;1275;-70
2023/09/28 00:18:49;;;;;;;5.18;3.50;;;;;;;;;;464750;28;958;-70
2023/09/28 00:19:08;;;;;;;5.17;3.40;;;;;;;;;;464613;28;1299;-70
2023/09/28 00:19:25;;;;;;;4.10;3.22;;;;;;;;;;464280;28;1211;-70
2023/09/28 00:19:41;;;;;;;3.30;3.00;;;;;;;;;;467821;28;1138;-70
2023/09/28 00:19:56;;;;;;;3.60;3.10;;;;;;;;;;468161;28;1103;-70
2023/09/28 00:20:18;;;;;;;3.40;3.10;;;;;;;;;;468582;28;1190;-70
2023/09/28 00:20:33;;;;;;;3.85;3.22;;;;;;;;;;468266;28;1030;-70
2023/09/28 00:20:49;;;;;;;4.37;3.50;;;;;;;;;;466208;28;1238;-70
2023/09/28 00:21:04;;;;;;;4.70;3.60;;;;;;;;;;469143;28;1137;-70
2023/09/28 00:21:20;;;;;;;4.57;3.63;;;;;;;;;;468837;28;1116;-70
2023/09/28 00:21:35;;;;;;;4.13;3.60;;;;;;;;;;469171;28;1001;-70
2023/09/28 00:21:50;;;;;;;4.57;3.67;;;;;;;;;;466613;28;1248;-70
2023/09/28 00:22:06;;;;;;;4.70;3.70;;;;;;;;;;467018;28;1150;-70
2023/09/28 00:22:21;;;;;;;4.00;3.60;;;;;;;;;;468085;28;1164;-70
2023/09/28 00:22:37;;;;;;;4.28;3.60;;;;;;;;;;465763;28;1178;-70
2023/09/28 00:22:54;;;;;;;4.80;3.73;;;;;;;;;;466093;28;1397;-70
2023/09/28 00:23:09;;;;;;;4.45;3.70;;;;;;;;;;465390;28;1368;-70
2023/09/28 00:23:25;;;;;;;5.07;3.80;;;;;;;;;;467228;28;1572;-70
2023/09/28 00:23:40;;;;;;;4.97;3.70;;;;;;;;;;466014;28;1162;-70
2023/09/28 00:23:55;;;;;;;4.67;3.70;;;;;;;;;;467690;28;1275;-70
2023/09/28 00:24:11;;;;;;;4.70;3.78;;;;;;;;;;466428;28;1495;-70
2023/09/28 00:24:26;;;;;;;5.43;4.13;;;;;;;;;;466710;28;1503;-70
2023/09/28 00:24:42;;;;;;;5.82;4.20;;;;;;;;;;466023;28;1284;-70
2023/09/28 00:24:58;;;;;;;5.30;3.73;;;;;;;;;;465163;28;1555;-70
2023/09/28 00:25:16;;;;;;;4.75;3.60;;;;;;;;;;466560;28;1225;-70
2023/09/28 00:25:31;;;;;;;4.32;3.47;;;;;;;;;;466477;28;1241;-71
2023/09/28 00:25:48;;;;;;;4.00;3.57;;;;;;;;;;468483;28;1017;-70
2023/09/28 00:26:03;;;;;;;4.25;3.70;;;;;;;;;;466697;28;1169;-70
2023/09/28 00:26:19;;;;;;;4.23;3.60;;;;;;;;;;466032;28;1145;-70
2023/09/28 00:26:34;;;;;;;4.28;3.67;;;;;;;;;;468019;28;946;-70
2023/09/28 00:26:51;;;;;;;4.63;3.63;;;;;;;;;;469422;28;1259;-70
2023/09/28 00:27:06;;;;;;;4.60;3.58;;;;;;;;;;468387;28;910;-70
2023/09/28 00:27:22;;;;;;;5.28;3.45;;;;;;;;;;467609;28;1666;-70
2023/09/28 00:27:38;;;;;;;4.60;3.63;;;;;;;;;;465190;28;1574;-70
2023/09/28 00:27:55;;;;;;;4.20;3.80;;;;;;;;;;465452;28;1360;-70
2023/09/28 00:28:11;;;;;;;4.65;3.80;;;;;;;;;;465357;28;1303;-70
2023/09/28 00:28:27;;;;;;;4.78;3.90;;;;;;;;;;466658;28;1035;-70
2023/09/28 00:28:42;;;;;;;4.70;3.72;;;;;;;;;;465553;28;1398;-70
2023/09/28 00:28:58;;;;;;;4.07;3.43;;;;;;;;;;465704;28;1039;-70
2023/09/28 00:29:13;;;;;;;3.90;3.50;;;;;;;;;;466057;28;1367;-70
2023/09/28 00:29:28;;;;;;;4.27;3.63;;;;;;;;;;466659;28;1428;-70
2023/09/28 00:29:46;;;;;;;4.63;3.60;;;;;;;;;;466993;28;1281;-70
2023/09/28 00:30:03;;;;;;;4.75;3.40;;;;;;;;;;466096;28;1647;-70
2023/09/28 00:30:22;;;;;;;5.10;3.60;;;;;;;;;;466149;28;1460;-70
2023/09/28 00:30:37;;;;;;;5.65;3.65;;;;;;;;;;467057;28;1367;-70
2023/09/28 00:30:52;;;;;;;4.33;3.40;;;;;;;;;;467320;28;1502;-70
2023/09/28 00:31:09;;;;;;;4.37;3.47;;;;;;;;;;466442;28;1567;-70
2023/09/28 00:31:24;;;;;;;4.32;3.72;;;;;;;;;;466490;28;1506;-70
2023/09/28 00:31:40;;;;;;;4.55;3.70;;;;;;;;;;466530;28;1359;-70
2023/09/28 00:31:55;;;;;;;4.20;3.60;;;;;;;;;;463011;28;1323;-70
2023/09/28 00:32:10;;;;;;;4.80;3.77;;;;;;;;;;464122;28;1485;-70
2023/09/28 00:32:26;;;;;;;5.50;4.00;;;;;;;;;;463040;28;1416;-71
2023/09/28 00:32:44;;;;;;;5.22;3.88;;;;;;;;;;462957;28;1431;-70
2023/09/28 00:32:59;;;;;;;6.53;3.90;;;;;;;;;;464358;28;1348;-70
2023/09/28 00:33:15;;;;;;;6.73;3.80;;;;;;;;;;467000;28;1347;-70
2023/09/28 00:33:30;;;;;;;5.03;3.63;;;;;;;;;;466878;28;1495;-70
2023/09/28 00:33:46;;;;;;;4.68;3.58;;;;;;;;;;467440;28;1385;-71
2023/09/28 00:34:01;;;;;;;4.57;3.70;;;;;;;;;;466491;28;1464;-70
2023/09/28 00:34:17;;;;;;;5.00;3.60;;;;;;;;;;464212;28;1664;-70
2023/09/28 00:34:32;;;;;;;6.15;3.70;;;;;;;;;;463144;28;1463;-70
2023/09/28 00:34:49;;;;;;;5.40;3.77;;;;;;;;;;463245;28;1438;-70
2023/09/28 00:35:06;;;;;;;4.20;3.58;;;;;;;;;;462836;28;1543;-70
2023/09/28 00:35:22;;;;;;;4.53;3.60;;;;;;;;;;462655;28;1542;-70
2023/09/28 00:35:37;;;;;;;4.75;3.70;;;;;;;;;;462532;28;1422;-70
2023/09/28 00:35:53;;;;;;;4.90;3.80;;;;;;;;;;467487;28;1382;-70
2023/09/28 00:36:08;;;;;;;4.65;3.65;;;;;;;;;;467672;28;1374;-70
2023/09/28 00:36:24;;;;;;;3.73;3.40;;;;;;;;;;465659;28;1406;-70
2023/09/28 00:36:39;;;;;;;3.58;3.28;;;;;;;;;;465474;28;1472;-70
2023/09/28 00:36:54;;;;;;;3.53;3.23;;;;;;;;;;467809;28;1519;-70
2023/09/28 00:37:10;;;;;;;3.40;3.10;;;;;;;;;;468120;28;1378;-70
2023/09/28 00:37:25;;;;;;;3.70;3.30;;;;;;;;;;467489;28;1354;-70
2023/09/28 00:37:41;;;;;;;4.20;3.70;;;;;;;;;;465914;28;1362;-70
2023/09/28 00:37:56;;;;;;;4.25;3.70;;;;;;;;;;463112;28;1502;-70
2023/09/28 00:38:12;;;;;;;5.53;3.77;;;;;;;;;;464231;28;1966;-71
2023/09/28 00:38:27;;;;;;;5.57;3.70;;;;;;;;;;462792;28;1527;-70
2023/09/28 00:38:42;;;;;;;4.10;3.47;;;;;;;;;;463357;28;1362;-70
2023/09/28 00:38:58;;;;;;;4.77;3.43;;;;;;;;;;465563;28;1391;-70
2023/09/28 00:39:13;;;;;;;4.57;3.43;;;;;;;;;;462560;28;1437;-70
2023/09/28 00:39:29;;;;;;;4.63;3.42;;;;;;;;;;463548;28;1348;-70
2023/09/28 00:39:44;;;;;;;4.80;3.50;;;;;;;;;;464167;28;1434;-70
2023/09/28 00:39:59;;;;;;;4.53;3.60;;;;;;;;;;463242;28;1539;-70
2023/09/28 00:40:17;;;;;;;4.60;3.57;;;;;;;;;;463460;28;1630;-70
2023/09/28 00:40:32;;;;;;;5.28;3.60;;;;;;;;;;463899;28;1033;-70
2023/09/28 00:40:48;;;;;;;5.37;3.60;;;;;;;;;;465035;28;1006;-70
2023/09/28 00:41:04;;;;;;;4.33;3.50;;;;;;;;;;466193;28;1257;-70
2023/09/28 00:41:19;;;;;;;3.60;3.30;;;;;;;;;;466167;28;1172;-70
2023/09/28 00:41:34;;;;;;;3.90;3.50;;;;;;;;;;466884;28;1190;-70
2023/09/28 00:41:50;;;;;;;5.00;3.50;;;;;;;;;;468013;28;1133;-70
2023/09/28 00:42:05;;;;;;;4.87;3.50;;;;;;;;;;466481;28;1160;-70
2023/09/28 00:42:22;;;;;;;4.15;3.42;;;;;;;;;;466629;28;899;-70
2023/09/28 00:42:37;;;;;;;5.25;3.47;;;;;;;;;;466515;28;1178;-70
2023/09/28 00:42:52;;;;;;;5.03;3.60;;;;;;;;;;465317;28;1361;-70
2023/09/28 00:43:07;;;;;;;4.87;3.70;;;;;;;;;;464562;28;1101;-70
2023/09/28 00:43:26;;;;;;;4.60;3.60;;;;;;;;;;465186;28;1178;-70
2023/09/28 00:43:42;;;;;;;3.92;3.50;;;;;;;;;;462382;28;1247;-70
2023/09/28 00:43:59;;;;;;;4.45;3.58;;;;;;;;;;463676;28;1071;-70
2023/09/28 00:44:15;;;;;;;5.95;3.70;;;;;;;;;;464040;28;1135;-70
2023/09/28 00:44:30;;;;;;;6.20;3.67;;;;;;;;;;460617;29;1285;-70
2023/09/28 00:44:45;;;;;;;4.43;3.55;;;;;;;;;;459627;28;1119;-70
2023/09/28 00:45:02;;;;;;;4.13;3.63;;;;;;;;;;462206;28;988;-70
2023/09/28 00:45:21;;;;;;;5.88;3.70;;;;;;;;;;461149;28;1177;-70
2023/09/28 00:45:38;;;;;;;4.82;3.60;;;;;;;;;;461870;28;1191;-70
2023/09/28 00:45:53;;;;;;;4.82;3.70;;;;;;;;;;463049;28;1295;-70
2023/09/28 00:46:13;;;;;;;5.07;3.80;;;;;;;;;;465136;28;1063;-70
2023/09/28 00:46:32;;;;;;;5.05;3.80;;;;;;;;;;465970;28;1268;-70
2023/09/28 00:46:48;;;;;;;5.03;3.60;;;;;;;;;;464417;28;1337;-70
2023/09/28 00:47:05;;;;;;;4.53;3.53;;;;;;;;;;463584;28;1213;-70
2023/09/28 00:47:20;;;;;;;4.72;3.53;;;;;;;;;;463175;28;1001;-70
2023/09/28 00:47:38;;;;;;;4.43;3.40;;;;;;;;;;463138;28;1261;-71
2023/09/28 00:48:03;;;;;;;4.93;3.45;;;;;;;;;;461427;28;1237;-70
2023/09/28 00:48:20;;;;;;;5.78;3.40;;;;;;;;;;460759;28;1181;-70
2023/09/28 00:48:45;;;;;;;5.43;3.72;;;;;;;;;;460404;28;1141;-70
2023/09/28 00:49:05;;;;;;;5.97;3.65;;;;;;;;;;464421;28;1648;-70
2023/09/28 00:49:20;;;;;;;5.63;3.78;;;;;;;;;;464815;28;899;-70
2023/09/28 00:49:36;;;;;;;5.43;3.80;;;;;;;;;;466534;28;1105;-71
2023/09/28 00:49:52;;;;;;;4.45;3.60;;;;;;;;;;465435;28;1193;-70
2023/09/28 00:50:10;;;;;;;5.17;3.70;;;;;;;;;;465255;28;1159;-70
2023/09/28 00:50:28;;;;;;;4.95;3.50;;;;;;;;;;467749;28;1154;-70
2023/09/28 00:50:43;;;;;;;4.05;3.50;;;;;;;;;;468172;28;1201;-70
2023/09/28 00:51:00;;;;;;;4.60;3.40;;;;;;;;;;465432;28;958;-70
2023/09/28 00:51:15;;;;;;;4.72;3.53;;;;;;;;;;466144;28;1217;-70
2023/09/28 00:51:33;;;;;;;4.10;3.63;;;;;;;;;;466018;28;961;-70
2023/09/28 00:51:48;;;;;;;4.22;3.60;;;;;;;;;;463866;28;1331;-70
2023/09/28 00:52:07;;;;;;;4.60;3.50;;;;;;;;;;464665;28;1062;-70
2023/09/28 00:52:23;;;;;;;5.38;3.47;;;;;;;;;;463702;28;1451;-70
2023/09/28 00:52:41;;;;;;;4.97;3.50;;;;;;;;;;462530;28;1457;-70
2023/09/28 00:53:04;;;;;;;3.88;3.47;;;;;;;;;;463545;28;1538;-70
2023/09/28 00:53:21;;;;;;;4.93;3.50;;;;;;;;;;464404;28;1428;-70
2023/09/28 00:53:36;;;;;;;4.70;3.45;;;;;;;;;;463982;28;1456;-70
2023/09/28 00:53:52;;;;;;;4.37;3.60;;;;;;;;;;464719;28;1333;-70
2023/09/28 00:54:07;;;;;;;5.47;3.53;;;;;;;;;;462612;28;1418;-70
2023/09/28 00:54:23;;;;;;;5.13;3.40;;;;;;;;;;461075;28;1481;-70
2023/09/28 00:54:38;;;;;;;4.05;3.58;;;;;;;;;;463583;28;1442;-70
2023/09/28 00:54:54;;;;;;;4.40;3.50;;;;;;;;;;461064;28;1325;-70
2023/09/28 00:55:11;;;;;;;6.23;3.53;;;;;;;;;;462624;28;1369;-70
2023/09/28 00:55:30;;;;;;;5.45;3.70;;;;;;;;;;465267;28;1529;-70
2023/09/28 00:55:45;;;;;;;4.93;3.65;;;;;;;;;;466746;28;1340;-70
2023/09/28 00:56:00;;;;;;;4.50;3.60;;;;;;;;;;466760;28;1350;-70
2023/09/28 00:56:17;;;;;;;4.20;3.50;;;;;;;;;;465632;28;1412;-70
2023/09/28 00:56:32;;;;;;;4.63;3.50;;;;;;;;;;464136;28;1942;-70
2023/09/28 00:56:48;;;;;;;4.27;3.60;;;;;;;;;;464197;28;1395;-70
2023/09/28 00:57:06;;;;;;;3.90;3.40;;;;;;;;;;463928;28;1355;-70
2023/09/28 00:57:21;;;;;;;3.70;3.30;;;;;;;;;;461974;28;1576;-70
2023/09/28 00:57:38;;;;;;;4.23;3.40;;;;;;;;;;461648;28;1362;-70
2023/09/28 00:57:57;;;;;;;3.88;3.40;;;;;;;;;;462490;28;1464;-70
2023/09/28 00:58:12;;;;;;;4.00;3.25;;;;;;;;;;465395;28;1976;-70
2023/09/28 00:58:28;;;;;;;5.43;3.50;;;;;;;;;;466779;28;1352;-70
2023/09/28 00:58:48;;;;;;;6.30;3.90;;;;;;;;;;465130;28;1343;-70
2023/09/28 00:59:03;;;;;;;5.28;3.80;;;;;;;;;;466453;28;1386;-70
2023/09/28 00:59:18;;;;;;;4.70;3.53;;;;;;;;;;466201;28;1473;-70
2023/09/28 00:59:34;;;;;;;4.35;3.60;;;;;;;;;;466145;28;1373;-70
2023/09/28 00:59:49;;;;;;;5.27;3.67;;;;;;;;;;466105;28;1347;-70
2023/09/28 01:00:40;;;;;;;4.47;3.65;;;;;;;;;;466972;28;1081;-70
2023/09/28 01:00:56;;;;;;;4.07;3.53;;;;;;;;;;467152;28;1106;-71
2023/09/28 01:01:11;;;;;;;3.88;3.40;;;;;;;;;;466755;28;1108;-70
2023/09/28 01:01:29;;;;;;;5.03;3.50;;;;;;;;;;468267;28;1090;-70
2023/09/28 01:01:47;;;;;;;4.78;3.58;;;;;;;;;;468702;28;1007;-70
2023/09/28 01:02:02;;;;;;;4.07;3.67;;;;;;;;;;469582;28;1221;-70
2023/09/28 01:02:18;;;;;;;4.47;3.60;;;;;;;;;;469281;28;1111;-70
2023/09/28 01:02:33;;;;;;;4.68;3.60;;;;;;;;;;468450;28;1179;-70
2023/09/28 01:02:51;;;;;;;5.13;3.70;;;;;;;;;;468942;28;906;-70
2023/09/28 01:03:07;;;;;;;5.85;3.90;;;;;;;;;;466794;28;1333;-70
2023/09/28 01:03:23;;;;;;;5.80;3.90;;;;;;;;;;465991;28;910;-70
2023/09/28 01:03:39;;;;;;;4.47;3.70;;;;;;;;;;466813;28;1069;-70
2023/09/28 01:03:56;;;;;;;4.30;3.70;;;;;;;;;;464023;28;1160;-70
2023/09/28 01:04:11;;;;;;;4.10;3.58;;;;;;;;;;464073;28;1259;-70
2023/09/28 01:04:27;;;;;;;4.23;3.53;;;;;;;;;;465111;28;1266;-70
2023/09/28 01:04:42;;;;;;;4.85;3.72;;;;;;;;;;463864;28;1338;-70
2023/09/28 01:04:57;;;;;;;4.63;3.63;;;;;;;;;;463747;28;1086;-70
2023/09/28 01:05:13;;;;;;;3.97;3.57;;;;;;;;;;462987;28;1293;-71
2023/09/28 01:05:33;;;;;;;4.97;3.72;;;;;;;;;;461829;28;1532;-70
2023/09/28 01:05:48;;;;;;;5.25;3.75;;;;;;;;;;465566;28;1161;-70
2023/09/28 01:06:07;;;;;;;4.40;3.77;;;;;;;;;;466697;28;1010;-70
2023/09/28 01:06:24;;;;;;;4.25;3.75;;;;;;;;;;464874;28;1470;-70
2023/09/28 01:06:41;;;;;;;3.88;3.40;;;;;;;;;;465805;28;1010;-70
2023/09/28 01:06:56;;;;;;;4.15;3.60;;;;;;;;;;465840;28;1492;-70
2023/09/28 01:07:13;;;;;;;4.53;3.70;;;;;;;;;;465789;28;1091;-70
2023/09/28 01:07:29;;;;;;;4.57;3.47;;;;;;;;;;467074;28;1294;-70
2023/09/28 01:07:45;;;;;;;4.47;3.38;;;;;;;;;;468275;28;1126;-70
2023/09/28 01:08:08;;;;;;;4.80;3.20;;;;;;;;;;466046;28;1106;-70
2023/09/28 01:08:23;;;;;;;4.53;3.40;;;;;;;;;;465642;28;1317;-70
2023/09/28 01:08:39;;;;;;;4.80;3.40;;;;;;;;;;465740;28;989;-70
2023/09/28 01:08:54;;;;;;;3.73;3.30;;;;;;;;;;465918;28;1327;-70
2023/09/28 01:09:09;;;;;;;5.10;3.50;;;;;;;;;;465800;28;930;-70
2023/09/28 01:09:26;;;;;;;5.40;3.63;;;;;;;;;;466312;28;1231;-70
2023/09/28 01:09:41;;;;;;;4.40;3.60;;;;;;;;;;466688;28;884;-70
2023/09/28 01:09:57;;;;;;;5.35;3.72;;;;;;;;;;466651;28;1047;-70
2023/09/28 01:10:20;;;;;;;6.17;3.73;;;;;;;;;;467463;28;1158;-71
2023/09/28 01:10:36;;;;;;;4.18;3.55;;;;;;;;;;467148;28;899;-70
2023/09/28 01:10:51;;;;;;;5.68;3.50;;;;;;;;;;467985;28;1145;-70
2023/09/28 01:11:07;;;;;;;5.87;3.50;;;;;;;;;;466040;28;1069;-70
2023/09/28 01:11:22;;;;;;;5.20;3.70;;;;;;;;;;466704;28;1028;-70
2023/09/28 01:11:37;;;;;;;5.47;3.70;;;;;;;;;;465555;28;1163;-70
2023/09/28 01:11:53;;;;;;;5.27;3.57;;;;;;;;;;466373;28;986;-70
2023/09/28 01:12:09;;;;;;;4.50;3.42;;;;;;;;;;466479;28;1237;-70
2023/09/28 01:12:25;;;;;;;4.35;3.45;;;;;;;;;;465840;28;1537;-70
2023/09/28 01:12:41;;;;;;;3.80;3.40;;;;;;;;;;465969;28;1525;-70
2023/09/28 01:12:58;;;;;;;3.53;3.22;;;;;;;;;;464242;28;1105;-70
2023/09/28 01:13:20;;;;;;;3.42;3.13;;;;;;;;;;465778;28;954;-70
2023/09/28 01:13:38;;;;;;;3.45;3.10;;;;;;;;;;466095;28;1104;-70
2023/09/28 01:13:54;;;;;;;3.60;3.25;;;;;;;;;;466450;28;1137;-70
2023/09/28 01:14:09;;;;;;;3.93;3.30;;;;;;;;;;465663;28;939;-70
2023/09/28 01:14:25;;;;;;;4.43;3.08;;;;;;;;;;467752;28;1316;-70
2023/09/28 01:14:41;;;;;;;4.07;3.03;;;;;;;;;;467257;28;1077;-70
2023/09/28 01:14:58;;;;;;;4.75;3.35;;;;;;;;;;465929;28;1251;-70
2023/09/28 01:15:13;;;;;;;4.65;3.47;;;;;;;;;;463257;28;1339;-70
2023/09/28 01:15:29;;;;;;;3.57;3.20;;;;;;;;;;463267;28;1269;-70
2023/09/28 01:15:49;;;;;;;4.23;3.23;;;;;;;;;;463375;28;1155;-70
2023/09/28 01:16:04;;;;;;;5.25;3.70;;;;;;;;;;465390;28;1756;-70
2023/09/28 01:16:20;;;;;;;4.93;3.50;;;;;;;;;;462571;28;1173;-70
2023/09/28 01:16:36;;;;;;;4.53;3.37;;;;;;;;;;466493;28;1099;-70
2023/09/28 01:16:52;;;;;;;6.32;3.47;;;;;;;;;;469365;28;1363;-70
2023/09/28 01:17:09;;;;;;;6.77;3.57;;;;;;;;;;464679;28;1279;-70
2023/09/28 01:17:24;;;;;;;4.93;3.40;;;;;;;;;;464457;28;918;-70
2023/09/28 01:17:40;;;;;;;5.67;3.30;;;;;;;;;;464958;28;1198;-70
2023/09/28 01:17:56;;;;;;;6.30;3.35;;;;;;;;;;466398;28;1029;-70
2023/09/28 01:18:15;;;;;;;5.60;3.47;;;;;;;;;;464625;28;2027;-70
2023/09/28 01:18:30;;;;;;;3.85;3.28;;;;;;;;;;464458;28;1569;-70
2023/09/28 01:18:45;;;;;;;3.58;3.22;;;;;;;;;;465178;28;1133;-70
2023/09/28 01:19:01;;;;;;;4.73;3.40;;;;;;;;;;467864;28;1082;-70
2023/09/28 01:19:16;;;;;;;5.10;3.60;;;;;;;;;;467429;28;1272;-71
2023/09/28 01:19:31;;;;;;;5.07;3.58;;;;;;;;;;467231;28;1071;-70
2023/09/28 01:19:47;;;;;;;5.13;3.43;;;;;;;;;;463687;28;1129;-70
2023/09/28 01:20:34;;;;;;;4.20;3.40;;;;;;;;;;462805;28;1039;-70
2023/09/28 01:20:47;;;;;;;3.80;3.30;;;;;;;;;;462437;28;1162;-70
2023/09/28 01:21:02;;;;;;;4.30;3.40;;;;;;;;;;465187;28;1109;-70
2023/09/28 01:21:18;;;;;;;4.07;3.40;;;;;;;;;;462962;28;1268;-70
2023/09/28 01:21:34;;;;;;;4.22;3.40;;;;;;;;;;462615;28;1226;-70
2023/09/28 01:21:51;;;;;;;4.25;3.20;;;;;;;;;;464422;28;1100;-70
2023/09/28 01:22:15;;;;;;;4.00;3.17;;;;;;;;;;462960;28;1139;-70
2023/09/28 01:22:31;;;;;;;3.83;3.30;;;;;;;;;;463442;28;985;-70
2023/09/28 01:22:49;;;;;;;3.37;3.07;;;;;;;;;;463076;28;1229;-70
2023/09/28 01:23:05;;;;;;;3.38;3.08;;;;;;;;;;465010;28;1436;-70
2023/09/28 01:23:20;;;;;;;4.18;3.33;;;;;;;;;;464484;28;1271;-70
2023/09/28 01:23:36;;;;;;;4.50;3.40;;;;;;;;;;463886;28;1222;-70
2023/09/28 01:23:51;;;;;;;4.15;3.40;;;;;;;;;;463928;28;1033;-70
2023/09/28 01:24:06;;;;;;;4.43;3.47;;;;;;;;;;465160;28;1115;-71
2023/09/28 01:24:22;;;;;;;4.80;3.30;;;;;;;;;;465351;28;1093;-70
2023/09/28 01:24:38;;;;;;;4.60;3.40;;;;;;;;;;465543;28;1027;-70
2023/09/28 01:24:54;;;;;;;5.13;3.63;;;;;;;;;;466760;28;1080;-70
2023/09/28 01:25:09;;;;;;;4.63;3.33;;;;;;;;;;468128;28;1048;-70
2023/09/28 01:25:26;;;;;;;3.88;3.47;;;;;;;;;;467299;28;1100;-70
2023/09/28 01:25:45;;;;;;;5.05;3.70;;;;;;;;;;466139;28;1575;-70
2023/09/28 01:26:01;;;;;;;5.75;3.70;;;;;;;;;;466603;28;1108;-70
2023/09/28 01:26:18;;;;;;;5.90;3.80;;;;;;;;;;464140;28;927;-71
2023/09/28 01:26:34;;;;;;;5.00;3.58;;;;;;;;;;464465;28;1136;-70
2023/09/28 01:26:50;;;;;;;5.38;3.60;;;;;;;;;;465727;28;1001;-70
2023/09/28 01:27:08;;;;;;;4.80;3.65;;;;;;;;;;466474;28;1107;-70
2023/09/28 01:27:23;;;;;;;4.70;3.45;;;;;;;;;;465866;28;1148;-70
2023/09/28 01:27:43;;;;;;;4.85;3.45;;;;;;;;;;467225;28;1286;-70
2023/09/28 01:27:59;;;;;;;4.75;3.42;;;;;;;;;;461563;28;1186;-70
2023/09/28 01:28:18;;;;;;;4.32;3.38;;;;;;;;;;463487;28;1231;-70
2023/09/28 01:28:34;;;;;;;4.90;3.35;;;;;;;;;;465276;28;1341;-70
2023/09/28 01:28:49;;;;;;;4.35;3.33;;;;;;;;;;466651;28;887;-70
2023/09/28 01:29:05;;;;;;;4.20;3.37;;;;;;;;;;465189;28;899;-70
2023/09/28 01:29:20;;;;;;;4.28;3.40;;;;;;;;;;466455;28;1119;-70
2023/09/28 01:29:36;;;;;;;5.23;3.40;;;;;;;;;;463524;28;1268;-70
2023/09/28 01:29:51;;;;;;;5.03;3.50;;;;;;;;;;464989;28;1356;-70
2023/09/28 01:30:10;;;;;;;4.23;3.60;;;;;;;;;;465239;28;1324;-70
2023/09/28 01:30:27;;;;;;;5.50;3.80;;;;;;;;;;466687;28;1521;-70
2023/09/28 01:30:42;;;;;;;5.15;3.65;;;;;;;;;;467831;28;1056;-70
2023/09/28 01:30:57;;;;;;;3.97;3.40;;;;;;;;;;468888;28;1256;-70
2023/09/28 01:31:13;;;;;;;3.90;3.50;;;;;;;;;;467760;28;1261;-70
2023/09/28 01:31:28;;;;;;;3.73;3.40;;;;;;;;;;465995;28;1244;-70
2023/09/28 01:31:43;;;;;;;4.27;3.20;;;;;;;;;;465096;28;1102;-71
2023/09/28 01:31:59;;;;;;;6.13;3.40;;;;;;;;;;465680;28;1369;-70
2023/09/28 01:32:14;;;;;;;8.52;3.50;;;;;;;;;;465607;28;1095;-70
2023/09/28 01:32:29;;;;;;;7.67;3.47;;;;;;;;;;467173;28;1363;-70
2023/09/28 01:32:45;;;;;;;4.30;3.43;;;;;;;;;;467672;28;1328;-70
2023/09/28 01:33:00;;;;;;;3.75;3.40;;;;;;;;;;465651;28;1070;-70
2023/09/28 01:33:16;;;;;;;4.93;3.40;;;;;;;;;;466705;28;1127;-71
2023/09/28 01:33:31;;;;;;;6.00;3.50;;;;;;;;;;467313;28;1254;-70
2023/09/28 01:33:46;;;;;;;5.00;3.50;;;;;;;;;;464366;28;1274;-70
2023/09/28 01:34:02;;;;;;;3.93;3.50;;;;;;;;;;464346;28;1141;-70
2023/09/28 01:34:17;;;;;;;4.50;3.63;;;;;;;;;;464880;28;934;-70
2023/09/28 01:34:33;;;;;;;5.20;3.57;;;;;;;;;;465773;28;1180;-70
2023/09/28 01:34:48;;;;;;;5.05;3.50;;;;;;;;;;465274;28;1537;-70
2023/09/28 01:35:04;;;;;;;4.83;3.70;;;;;;;;;;462648;28;1311;-70
2023/09/28 01:35:20;;;;;;;4.10;3.70;;;;;;;;;;466531;28;1489;-70
2023/09/28 01:35:36;;;;;;;4.28;3.50;;;;;;;;;;465862;28;1356;-70
2023/09/28 01:35:51;;;;;;;4.80;3.50;;;;;;;;;;468026;28;1099;-70
2023/09/28 01:36:07;;;;;;;4.77;3.70;;;;;;;;;;467321;28;993;-70
2023/09/28 01:36:22;;;;;;;4.88;3.80;;;;;;;;;;466633;28;1307;-70
2023/09/28 01:36:37;;;;;;;4.10;3.63;;;;;;;;;;465284;28;1265;-70
2023/09/28 01:36:53;;;;;;;4.20;3.50;;;;;;;;;;465268;28;1241;-70
2023/09/28 01:37:08;;;;;;;4.57;3.45;;;;;;;;;;465641;28;1100;-70
2023/09/28 01:37:30;;;;;;;4.20;3.60;;;;;;;;;;464104;28;1133;-70
2023/09/28 01:38:04;;;;;;;4.60;3.70;;;;;;;;;;463335;28;935;-70
2023/09/28 01:38:26;;;;;;;5.97;3.80;;;;;;;;;;465446;28;1989;-70
2023/09/28 01:38:48;;;;;;;6.13;3.40;;;;;;;;;;464285;28;1319;-70
2023/09/28 01:39:07;;;;;;;4.80;3.42;;;;;;;;;;463477;28;1106;-70
2023/09/28 01:39:22;;;;;;;3.92;3.53;;;;;;;;;;464697;28;1757;-70
2023/09/28 01:39:38;;;;;;;4.17;3.30;;;;;;;;;;464478;28;878;-70
2023/09/28 01:39:53;;;;;;;4.95;3.50;;;;;;;;;;463943;28;958;-70
2023/09/28 01:40:09;;;;;;;4.80;3.80;;;;;;;;;;464635;28;1103;-70
2023/09/28 01:40:24;;;;;;;4.20;3.60;;;;;;;;;;465963;28;934;-70
2023/09/28 01:40:41;;;;;;;4.30;3.57;;;;;;;;;;464578;28;1224;-70
2023/09/28 01:40:57;;;;;;;3.75;3.40;;;;;;;;;;465642;28;1398;-70
2023/09/28 01:41:14;;;;;;;3.90;3.33;;;;;;;;;;468656;28;986;-71
2023/09/28 01:41:29;;;;;;;4.85;3.65;;;;;;;;;;465496;28;1378;-70
2023/09/28 01:41:45;;;;;;;4.67;3.60;;;;;;;;;;465544;28;1237;-71
2023/09/28 01:42:00;;;;;;;4.37;3.60;;;;;;;;;;465631;28;1357;-70
2023/09/28 01:42:15;;;;;;;5.80;3.80;;;;;;;;;;464520;28;1195;-71